Time;durP1;ratioP1;P1;durP2;ratioP2;P2;SDS_P1;SDS_P2;PMS_P1;PMS_P2;Temp;Humidity;BMP_temperature;BMP_pressure;BME280_temperature;BME280_humidity;BME280_pressure;Samples;Min_cycle;Max_cycle;Signal;HPM_P1;HPM_P2
2022/05/13 00:00:11;;;;;;;;;2.00;1.00;;;;;17.84;40.27;101689.78;5115550;27;45127;-71
2022/05/13 00:02:37;;;;;;;;;3.67;1.33;;;;;17.73;40.23;101675.25;5131618;27;45219;-67
2022/05/13 00:05:04;;;;;;;;;3.00;1.00;;;;;17.76;39.81;101681.59;5099257;27;45311;-67
2022/05/13 00:07:29;;;;;;;;;1.00;1.00;;;;;17.80;39.92;101680.75;5133828;27;45960;-68
2022/05/13 00:09:58;;;;;;;;;1.00;1.00;;;;;17.73;39.97;101670.75;5116739;27;51806;-68
2022/05/13 00:12:27;;;;;;;;;1.00;1.00;;;;;17.80;40.00;101677.13;5114981;27;45221;-67
2022/05/13 00:14:53;;;;;;;;;1.00;1.00;;;;;17.72;40.63;101676.13;5114836;27;45030;-67
2022/05/13 00:17:20;;;;;;;;;5.00;4.00;;;;;17.71;40.17;101682.44;5114088;27;45185;-68
2022/05/13 00:19:45;;;;;;;;;1.33;0.00;;;;;17.67;40.42;101687.81;5113053;27;44965;-70
2022/05/13 00:22:12;;;;;;;;;1.67;1.33;;;;;17.66;40.77;101691.38;5112458;27;45166;-67
2022/05/13 00:24:38;;;;;;;;;3.00;1.00;;;;;17.67;40.85;101692.31;5127756;27;45378;-67
2022/05/13 00:27:04;;;;;;;;;1.00;1.00;;;;;16.95;40.66;101558.13;5132386;27;45152;-69
2022/05/13 00:29:29;;;;;;;;;0.00;0.00;;;;;17.65;40.67;101692.28;5131806;27;45003;-68
2022/05/13 00:31:55;;;;;;;;;2.00;2.00;;;;;17.41;40.36;101646.03;5131962;27;45059;-68
2022/05/13 00:34:21;;;;;;;;;2.00;0.00;;;;;17.68;40.14;101692.28;5125051;27;45037;-67
2022/05/13 00:36:47;;;;;;;;;2.00;0.00;;;;;17.51;40.22;101650.66;5098664;27;46472;-68
2022/05/13 00:39:13;;;;;;;;;3.00;0.00;;;;;17.55;40.25;101665.13;5132014;27;45018;-69
2022/05/13 00:41:38;;;;;;;;;3.33;1.00;;;;;17.63;40.22;101672.41;5131709;27;44929;-71
2022/05/13 00:44:04;;;;;;;;;0.00;0.00;;;;;17.37;40.12;101669.38;5114375;27;45148;-70
2022/05/13 00:46:30;;;;;;;;;0.33;0.33;;;;;17.57;40.28;101680.47;5111335;27;45499;-67
2022/05/13 00:48:58;;;;;;;;;2.00;2.00;;;;;17.19;39.90;101601.63;5110457;27;47022;-70
2022/05/13 00:51:29;;;;;;;;;2.00;0.00;;;;;17.57;40.19;101679.53;5130977;27;45389;-67
2022/05/13 00:53:55;;;;;;;;;0.00;0.00;;;;;17.54;40.22;101676.81;5131169;27;45405;-66
2022/05/13 00:56:22;;;;;;;;;0.00;0.00;;;;;17.31;39.77;101651.31;5114927;27;45785;-67
2022/05/13 00:58:51;;;;;;;;;1.00;1.00;;;;;17.48;39.46;101689.34;5111066;27;45039;-67
2022/05/13 01:01:16;;;;;;;;;2.00;1.00;;;;;17.49;39.48;101683.06;5113655;27;45176;-68
2022/05/13 01:03:42;;;;;;;;;3.00;2.00;;;;;17.22;39.86;101640.38;5118878;27;45034;-66
2022/05/13 01:06:13;;;;;;;;;2.00;0.67;;;;;17.49;39.92;101698.38;5111860;27;46206;-69
2022/05/13 01:08:39;;;;;;;;;0.67;0.67;;;;;17.19;40.07;101651.16;5113882;27;45041;-69
2022/05/13 01:11:11;;;;;;;;;3.00;1.00;;;;;17.23;39.66;101649.41;5133599;27;44984;-67
2022/05/13 01:13:37;;;;;;;;;1.00;1.00;;;;;17.20;40.11;101647.56;5133719;27;45161;-71
2022/05/13 01:16:03;;;;;;;;;0.33;0.00;;;;;17.26;39.90;101673.75;5130304;27;46185;-67
2022/05/13 01:18:35;;;;;;;;;1.00;1.00;;;;;17.32;40.08;101679.22;5131294;27;45100;-67
2022/05/13 01:21:03;;;;;;;;;2.00;1.00;;;;;16.86;40.30;101595.81;5129110;27;45154;-67
2022/05/13 01:23:32;;;;;;;;;3.00;1.00;;;;;17.34;40.51;101688.28;5117787;27;44999;-67
2022/05/13 01:26:07;;;;;;;;;1.00;1.00;;;;;17.30;40.53;101691.81;5112323;27;45189;-69
2022/05/13 01:28:40;;;;;;;;;1.67;1.00;;;;;17.11;40.79;101674.47;5113091;27;45141;-68
2022/05/13 01:31:08;;;;;;;;;3.33;2.67;;;;;17.18;40.80;101681.75;5114467;27;44976;-67
2022/05/13 01:33:35;;;;;;;;;1.33;1.33;;;;;17.12;41.11;101693.34;5134169;27;44909;-66
2022/05/13 01:36:03;;;;;;;;;1.33;1.00;;;;;16.97;40.33;101666.13;5129107;27;45149;-70
2022/05/13 01:38:33;;;;;;;;;5.00;3.67;;;;;17.16;40.41;101705.13;5132956;27;45030;-67
2022/05/13 01:40:58;;;;;;;;;2.67;2.00;;;;;17.10;40.46;101697.81;5129112;27;45225;-67
2022/05/13 01:43:25;;;;;;;;;2.00;2.00;;;;;17.13;40.10;101699.69;5134391;27;44957;-67
2022/05/13 01:45:52;;;;;;;;;5.00;4.50;;;;;16.62;40.77;101628.69;5102001;27;44959;-69
2022/05/13 01:48:18;;;;;;;;;8.00;5.00;;;;;16.95;41.00;101678.72;5133229;27;45185;-67
2022/05/13 01:50:43;;;;;;;;;5.25;5.25;;;;;16.85;40.77;101658.78;5133414;27;45066;-69
2022/05/13 01:53:10;;;;;;;;;6.75;6.25;;;;;17.02;40.82;101695.91;5100538;27;44990;-67
2022/05/13 01:55:36;;;;;;;;;4.00;2.67;;;;;16.92;41.74;101698.47;5133182;27;45776;-71
2022/05/13 01:58:02;;;;;;;;;5.00;4.75;;;;;16.94;41.66;101690.38;5127834;27;45086;-67
2022/05/13 02:00:28;;;;;;;;;7.67;5.33;;;;;16.92;41.80;101694.84;5130498;27;44904;-68
2022/05/13 02:05:38;;;;;;;;;4.33;3.00;;;;;16.85;41.98;101672.28;5132895;27;45059;-68
2022/05/13 02:08:04;;;;;;;;;6.33;3.67;;;;;16.87;42.18;101675.00;5132294;27;44917;-68
2022/05/13 02:10:29;;;;;;;;;2.67;2.00;;;;;16.90;42.35;101691.25;5133468;27;44956;-68
2022/05/13 02:12:55;;;;;;;;;2.33;1.33;;;;;16.86;42.33;101695.69;5118867;27;44965;-69
2022/05/13 02:15:21;;;;;;;;;3.33;3.33;;;;;16.70;42.17;101664.81;5133231;27;45293;-67
2022/05/13 02:17:46;;;;;;;;;3.00;2.00;;;;;16.80;42.49;101694.66;5132691;27;45751;-68
2022/05/13 02:20:12;;;;;;;;;5.33;2.00;;;;;16.82;42.81;101690.19;5131209;27;45331;-69
2022/05/13 02:22:38;;;;;;;;;1.67;1.67;;;;;16.47;42.54;101641.97;5117502;27;45201;-67
2022/05/13 02:25:05;;;;;;;;;3.67;2.67;;;;;16.70;43.23;101678.31;5117021;27;46353;-69
2022/05/13 02:27:30;;;;;;;;;3.33;1.00;;;;;16.80;42.90;101697.34;5116588;27;45035;-67
2022/05/13 02:29:55;;;;;;;;;1.33;0.00;;;;;16.49;42.99;101648.28;5120621;27;45186;-67
2022/05/13 02:32:21;;;;;;;;;2.67;1.33;;;;;16.82;43.15;101691.06;5136571;27;45074;-68
2022/05/13 02:34:46;;;;;;;;;1.33;1.33;;;;;16.79;43.18;101692.81;5119163;27;45570;-69
2022/05/13 02:37:12;;;;;;;;;3.00;1.00;;;;;16.81;43.21;101694.66;5114863;27;45082;-67
2022/05/13 02:39:37;;;;;;;;;1.33;1.33;;;;;16.72;43.38;101687.31;5115815;27;45073;-71
2022/05/13 02:42:03;;;;;;;;;1.00;1.00;;;;;16.73;43.48;101696.34;5116138;27;45095;-71
2022/05/13 02:44:29;;;;;;;;;1.00;1.00;;;;;16.57;44.17;101666.38;5116624;27;45177;-69
2022/05/13 02:46:54;;;;;;;;;2.00;1.00;;;;;16.62;43.45;101666.47;5116987;27;45042;-67
2022/05/13 02:49:19;;;;;;;;;2.33;2.00;;;;;16.79;44.21;101700.91;5116660;27;45127;-70
2022/05/13 02:51:46;;;;;;;;;2.00;2.00;;;;;16.62;43.85;101676.38;5116729;27;45014;-67
2022/05/13 02:54:11;;;;;;;;;3.00;1.33;;;;;16.68;43.84;101698.03;5116101;27;45548;-67
2022/05/13 02:56:37;;;;;;;;;1.00;1.00;;;;;16.52;44.00;101681.59;5115584;27;45075;-69
2022/05/13 02:59:03;;;;;;;;;2.00;1.67;;;;;16.68;43.85;101695.34;5118804;27;45389;-68
2022/05/13 03:01:28;;;;;;;;;2.00;1.33;;;;;16.68;44.07;101698.97;5122009;27;45101;-69
2022/05/13 03:03:53;;;;;;;;;1.33;1.00;;;;;16.72;43.95;101697.22;5115165;27;45535;-67
2022/05/13 03:06:20;;;;;;;;;6.33;1.67;;;;;16.74;44.58;101696.34;5115084;27;45121;-68
2022/05/13 03:08:47;;;;;;;;;4.00;2.33;;;;;16.74;44.45;101693.63;5118547;27;45225;-66
2022/05/13 03:11:14;;;;;;;;;3.75;3.75;;;;;16.75;44.10;101691.88;5114638;27;45113;-67
2022/05/13 03:13:40;;;;;;;;;2.00;1.33;;;;;16.77;44.91;101690.09;5112818;27;46244;-68
2022/05/13 03:16:08;;;;;;;;;3.67;1.33;;;;;16.50;45.44;101679.75;5112461;27;45376;-66
2022/05/13 03:18:34;;;;;;;;;2.33;1.67;;;;;16.50;45.26;101701.31;5115678;27;45171;-67
2022/05/13 03:21:00;;;;;;;;;2.00;2.00;;;;;16.52;45.48;101696.88;5113023;27;45363;-69
2022/05/13 03:23:26;;;;;;;;;2.50;2.50;;;;;16.44;45.14;101674.28;5115747;27;45178;-67
2022/05/13 03:25:51;;;;;;;;;2.67;2.67;;;;;16.58;45.62;101692.50;5115894;27;45028;-69
2022/05/13 03:28:17;;;;;;;;;1.67;1.67;;;;;16.59;45.27;101694.28;5115967;27;44942;-67
2022/05/13 03:30:43;;;;;;;;;1.00;1.00;;;;;16.66;44.99;101686.31;5114676;27;44903;-70
2022/05/13 03:33:09;;;;;;;;;2.67;2.67;;;;;16.71;44.75;101682.81;5116486;27;46622;-68
2022/05/13 03:35:34;;;;;;;;;4.00;2.67;;;;;16.72;44.92;101681.03;5115460;27;45139;-69
2022/05/13 03:38:00;;;;;;;;;1.33;0.00;;;;;16.76;44.63;101694.59;5110770;27;45070;-68
2022/05/13 03:40:26;;;;;;;;;2.00;2.00;;;;;16.72;45.21;101691.81;5115521;27;44931;-67
2022/05/13 03:42:51;;;;;;;;;1.00;1.00;;;;;16.73;45.40;101697.25;5096083;27;47198;-67
2022/05/13 03:45:18;;;;;;;;;1.00;1.00;;;;;16.73;44.81;101693.66;5115709;27;44974;-67
2022/05/13 03:47:44;;;;;;;;;2.33;1.00;;;;;16.52;45.20;101661.81;5115660;27;45149;-69
2022/05/13 03:50:10;;;;;;;;;2.00;0.33;;;;;16.57;45.31;101701.47;5130280;27;45248;-69
2022/05/13 03:52:36;;;;;;;;;3.00;1.00;;;;;16.46;45.94;101699.47;5119174;27;45544;-68
2022/05/13 03:55:02;;;;;;;;;2.00;1.00;;;;;16.40;46.22;101698.47;5115170;27;44916;-68
2022/05/13 03:57:27;;;;;;;;;2.00;2.00;;;;;16.35;46.27;101701.97;5115227;27;44990;-69
2022/05/13 03:59:53;;;;;;;;;2.67;1.00;;;;;16.26;46.65;101702.72;5114602;27;45457;-67
2022/05/13 04:02:19;;;;;;;;;1.00;1.00;;;;;16.23;46.62;101696.34;5127678;27;45770;-69
2022/05/13 04:10:12;;;;;;;;;2.33;2.00;;;;;16.18;47.17;101680.09;5114657;27;45082;-69
2022/05/13 04:18:05;;;;;;;;;4.33;2.00;;;;;16.33;47.42;101706.44;5126283;27;45270;-68
2022/05/13 04:20:32;;;;;;;;;1.33;1.33;;;;;16.19;48.34;101692.72;5132833;27;44906;-69
2022/05/13 04:22:57;;;;;;;;;1.67;0.67;;;;;16.14;48.18;101686.31;5127424;27;45360;-70
2022/05/13 04:25:23;;;;;;;;;2.67;1.33;;;;;16.24;47.91;101704.47;5132841;27;44878;-69
2022/05/13 04:27:48;;;;;;;;;4.33;2.00;;;;;16.26;48.18;101708.09;5133847;27;45086;-67
2022/05/13 04:30:13;;;;;;;;;2.33;2.33;;;;;16.30;48.29;101701.91;5134624;27;44924;-68
2022/05/13 04:32:39;;;;;;;;;3.33;1.67;;;;;16.28;48.42;101708.13;5131524;27;45314;-68
2022/05/13 04:35:04;;;;;;;;;14.50;14.00;;;;;16.10;48.40;101682.66;5132771;27;45269;-69
2022/05/13 04:37:30;;;;;;;;;7.00;1.67;;;;;16.33;48.87;101717.22;5118043;27;45373;-67
2022/05/13 04:39:55;;;;;;;;;4.00;2.67;;;;;16.12;48.86;101688.06;5092979;27;45271;-67
2022/05/13 04:45:07;;;;;;;;;2.67;2.67;;;;;16.19;49.39;101716.97;5125307;27;45158;-71
2022/05/13 04:50:16;;;;;;;;;2.67;2.00;;;;;15.95;49.53;101712.91;5114354;27;45109;-72
2022/05/13 04:52:42;;;;;;;;;1.00;1.00;;;;;15.91;50.19;101710.16;5111515;27;45201;-69
2022/05/13 04:55:08;;;;;;;;;3.33;1.33;;;;;15.81;50.02;101703.66;5111209;27;45076;-69
2022/05/13 04:57:33;;;;;;;;;3.00;3.00;;;;;15.50;50.24;101645.53;5111551;27;44956;-67
2022/05/13 04:59:58;;;;;;;;;3.67;2.33;;;;;15.90;50.20;101719.09;5113048;27;45207;-68
2022/05/13 05:02:24;;;;;;;;;3.00;3.00;;;;;15.94;49.96;101726.38;5126117;27;49925;-68
2022/05/13 05:04:49;;;;;;;;;3.67;1.33;;;;;15.89;51.00;101731.66;5130945;27;45179;-69
2022/05/13 05:07:14;;;;;;;;;4.67;2.67;;;;;15.76;50.70;101729.59;5113638;27;45457;-66
2022/05/13 05:09:40;;;;;;;;;4.00;3.67;;;;;15.76;50.91;101725.13;5113659;27;45048;-66
2022/05/13 05:12:07;;;;;;;;;7.33;4.33;;;;;15.89;51.10;101746.91;5113534;27;45073;-66
2022/05/13 05:14:33;;;;;;;;;3.00;3.00;;;;;15.90;50.82;101724.47;5101714;27;45149;-72
2022/05/13 05:16:59;;;;;;;;;2.67;2.67;;;;;15.98;50.71;101745.31;5113016;27;45246;-68
2022/05/13 05:19:24;;;;;;;;;7.67;4.00;;;;;15.88;50.52;101710.06;5122519;27;45179;-66
2022/05/13 05:21:50;;;;;;;;;44.75;35.75;;;;;15.65;50.55;101654.78;5122588;27;45282;-66
2022/05/13 05:24:15;;;;;;;;;4.50;4.50;;;;;15.98;50.36;101710.28;5116260;27;45166;-67
2022/05/13 05:26:41;;;;;;;;;4.50;3.75;;;;;15.91;50.82;101729.00;5124620;27;45090;-67
2022/05/13 05:29:07;;;;;;;;;7.50;7.00;;;;;16.01;51.09;101756.16;5114467;27;45238;-65
2022/05/13 05:31:32;;;;;;;;;8.00;6.75;;;;;16.09;50.76;101747.34;5123873;27;45002;-65
2022/05/13 05:33:57;;;;;;;;;4.00;4.00;;;;;16.14;50.66;101757.31;5120205;27;44994;-67
2022/05/13 05:36:23;;;;;;;;;2.33;2.33;;;;;15.93;50.80;101711.97;5123778;27;45020;-69
2022/05/13 05:38:48;;;;;;;;;6.25;4.00;;;;;16.19;51.13;101763.72;5126622;27;45185;-67
2022/05/13 05:41:14;;;;;;;;;5.25;3.50;;;;;16.18;50.58;101744.81;5117120;27;45219;-70
2022/05/13 05:43:39;;;;;;;;;4.50;4.50;;;;;16.27;50.40;101757.53;5113157;27;45118;-65
2022/05/13 05:46:05;;;;;;;;;5.25;4.00;;;;;16.29;49.97;101772.88;5113748;27;45059;-65
2022/05/13 05:48:31;;;;;;;;;22.25;16.75;;;;;16.32;50.52;101767.56;5132372;27;45033;-66
2022/05/13 05:50:58;;;;;;;;;6.33;3.67;;;;;16.38;50.25;101769.44;5118788;27;45125;-65
2022/05/13 05:59:07;;;;;;;;;16.00;13.75;;;;;16.47;49.91;101780.41;5131599;27;44991;-66
2022/05/13 06:01:33;;;;;;;;;5.33;4.67;;;;;16.50;49.94;101777.78;5113862;27;45149;-65
2022/05/13 06:03:58;;;;;;;;;13.50;13.25;;;;;16.52;50.00;101788.59;5112642;27;45071;-66
2022/05/13 06:06:25;;;;;;;;;7.50;6.75;;;;;16.34;49.97;101746.91;5115158;27;45229;-65
2022/05/13 06:08:54;;;;;;;;;9.75;7.25;;;;;16.62;49.87;101792.38;5121145;27;44947;-67
2022/05/13 06:11:19;;;;;;;;;7.50;5.50;;;;;16.65;49.94;101798.75;5123838;27;45426;-66
2022/05/13 06:13:45;;;;;;;;;3.33;2.33;;;;;16.71;49.56;101797.94;5116625;27;45415;-66
2022/05/13 06:16:10;;;;;;;;;5.00;4.00;;;;;16.77;49.26;101796.25;5115686;27;45259;-67
2022/05/13 06:18:37;;;;;;;;;8.00;5.25;;;;;16.23;49.34;101715.22;5096769;27;45638;-68
2022/05/13 06:21:03;;;;;;;;;2.00;2.00;;;;;16.58;49.27;101773.44;5106475;27;46168;-67
2022/05/13 06:23:29;;;;;;;;;9.00;5.67;;;;;16.48;49.41;101771.47;5095190;27;45518;-67
2022/05/13 06:25:54;;;;;;;;;12.00;4.67;;;;;16.67;49.89;101799.66;5094092;27;45667;-69
2022/05/13 06:28:20;;;;;;;;;6.25;5.25;;;;;16.38;49.63;101731.69;5094102;27;45444;-69
2022/05/13 06:30:45;;;;;;;;;4.25;4.25;;;;;16.78;48.90;101794.47;5103956;27;45593;-72
2022/05/13 06:33:10;;;;;;;;;6.33;3.00;;;;;16.90;49.05;101807.31;5081558;27;45447;-67
2022/05/13 06:35:36;;;;;;;;;2.33;0.33;;;;;16.91;48.88;101814.50;5112204;27;45401;-67
2022/05/13 06:38:02;;;;;;;;;4.33;3.00;;;;;16.75;48.51;101775.53;5104510;27;45330;-67
2022/05/13 06:40:28;;;;;;;;;4.67;4.67;;;;;16.78;48.51;101789.09;5104888;27;46695;-69
2022/05/13 06:42:54;;;;;;;;;4.00;4.00;;;;;17.04;47.62;101821.97;5103197;27;45359;-68
2022/05/13 06:45:20;;;;;;;;;4.33;3.33;;;;;16.94;47.83;101790.25;5110041;27;45545;-70
2022/05/13 06:47:45;;;;;;;;;2.67;2.67;;;;;16.97;46.57;101775.94;5105774;27;45473;-69
2022/05/13 06:50:16;;;;;;;;;3.00;1.00;;;;;17.18;46.07;101816.78;5101401;27;45487;-67
2022/05/13 06:52:42;;;;;;;;;3.00;3.00;;;;;17.23;46.27;101816.84;5098341;27;45448;-71
2022/05/13 06:55:10;;;;;;;;;2.00;2.00;;;;;17.17;46.08;101831.16;5106757;27;45512;-66
2022/05/13 06:57:37;;;;;;;;;9.00;2.67;;;;;17.16;45.97;101829.34;5101361;27;45504;-68
2022/05/13 07:00:04;;;;;;;;;5.67;4.00;;;;;17.08;46.31;101818.41;5094380;27;47023;-68
2022/05/13 07:02:30;;;;;;;;;3.00;2.00;;;;;17.11;46.12;101829.28;5098604;27;45467;-68
2022/05/13 07:04:55;;;;;;;;;4.67;3.00;;;;;17.04;45.94;101807.53;5108884;27;45703;-68
2022/05/13 07:07:20;;;;;;;;;2.33;2.33;;;;;17.01;44.37;101829.06;5104135;27;45378;-67
2022/05/13 07:09:46;;;;;;;;;4.67;3.67;;;;;16.94;44.67;101815.50;5098869;27;45486;-72
2022/05/13 07:12:11;;;;;;;;;2.00;1.33;;;;;16.95;44.21;101838.00;5104451;27;45998;-68
2022/05/13 07:14:37;;;;;;;;;2.33;2.33;;;;;16.92;44.56;101838.81;5109669;27;45266;-69
2022/05/13 07:17:03;;;;;;;;;4.00;4.00;;;;;16.90;43.51;101815.41;5103127;27;45584;-70
2022/05/13 07:19:29;;;;;;;;;3.00;1.00;;;;;17.09;43.52;101833.75;5103264;27;46204;-70
2022/05/13 07:21:54;;;;;;;;;3.00;2.00;;;;;17.06;43.55;101825.59;5112090;27;45462;-68
2022/05/13 07:24:19;;;;;;;;;4.00;2.00;;;;;17.39;43.33;101842.28;5108379;27;45452;-69
2022/05/13 07:26:45;;;;;;;;;2.00;1.33;;;;;17.54;42.89;101841.63;5098569;27;45314;-69
2022/05/13 07:29:11;;;;;;;;;1.00;1.00;;;;;17.67;43.02;101838.25;5106919;27;45443;-69
2022/05/13 07:31:36;;;;;;;;;3.00;3.00;;;;;17.72;42.32;101835.59;5103389;27;45543;-68
2022/05/13 07:34:02;;;;;;;;;8.33;5.33;;;;;17.77;42.37;101844.66;5104813;27;45300;-70
2022/05/13 07:36:28;;;;;;;;;4.00;2.00;;;;;17.64;40.99;101806.66;5114502;27;45443;-70
2022/05/13 07:41:38;;;;;;;;;4.00;4.00;;;;;17.89;41.60;101846.69;5105843;27;45608;-68
2022/05/13 07:44:04;;;;;;;;;2.00;2.00;;;;;18.05;41.72;101843.31;5097789;27;45476;-69
2022/05/13 07:46:29;;;;;;;;;1.00;1.00;;;;;18.05;41.06;101830.69;5108091;27;45414;-68
2022/05/13 07:48:54;;;;;;;;;2.00;2.00;;;;;17.13;40.94;101676.28;5106198;27;46035;-67
2022/05/13 07:51:23;;;;;;;;;2.33;1.00;;;;;18.22;40.96;101847.13;5106296;27;45359;-68
2022/05/13 07:53:48;;;;;;;;;4.00;3.00;;;;;18.30;40.62;101843.63;5099171;27;45519;-69
2022/05/13 07:56:14;;;;;;;;;1.00;1.00;;;;;18.35;40.73;101842.78;5109605;27;45370;-68
2022/05/13 07:58:39;;;;;;;;;7.00;5.33;;;;;18.45;40.80;101845.59;5098693;27;45524;-68
2022/05/13 08:01:05;;;;;;;;;4.00;2.67;;;;;18.48;41.10;101848.31;5084759;27;45386;-67
2022/05/13 08:03:31;;;;;;;;;4.00;4.00;;;;;18.52;41.10;101850.19;5115123;27;45588;-67
2022/05/13 08:06:02;;;;;;;;;2.67;2.67;;;;;18.62;40.96;101837.66;5102547;27;45612;-70
2022/05/13 08:08:39;;;;;;;;;2.00;1.67;;;;;18.65;40.90;101818.75;5111843;27;46993;-67
2022/05/13 08:11:07;;;;;;;;;1.00;1.00;;;;;18.74;40.41;101829.66;5100522;27;45519;-67
2022/05/13 08:13:34;;;;;;;;;5.67;2.00;;;;;18.55;39.94;101790.69;5106253;27;45362;-67
2022/05/13 08:16:01;;;;;;;;;3.00;3.00;;;;;18.72;40.09;101834.16;5092461;27;45672;-68
2022/05/13 08:18:26;;;;;;;;;1.00;1.00;;;;;18.73;40.28;101811.59;5108814;27;45656;-66
2022/05/13 08:20:52;;;;;;;;;5.00;2.00;;;;;18.81;40.17;101811.66;5098481;27;45538;-68
2022/05/13 08:23:18;;;;;;;;;3.00;1.33;;;;;19.05;39.37;101841.72;5106080;27;45265;-68
2022/05/13 08:25:46;;;;;;;;;2.67;2.33;;;;;19.03;39.48;101845.31;5105591;27;45430;-66
2022/05/13 08:28:14;;;;;;;;;1.00;1.00;;;;;18.94;38.83;101821.75;5105617;27;47347;-66
2022/05/13 08:30:40;;;;;;;;;4.00;1.00;;;;;18.84;37.68;101809.94;5097966;27;45588;-67
2022/05/13 08:33:08;;;;;;;;;3.00;1.33;;;;;18.99;38.00;101824.50;5105650;27;45323;-69
2022/05/13 08:35:36;;;;;;;;;2.00;1.00;;;;;19.11;38.88;101832.75;5098489;27;45377;-67
2022/05/13 08:38:02;;;;;;;;;4.00;4.00;;;;;19.19;38.23;101822.88;5092896;27;46097;-68
2022/05/13 08:40:55;;;;;;;;;2.33;2.33;;;;;19.36;38.78;101841.06;5102535;27;45532;-69
2022/05/13 08:43:36;;;;;;;;;1.67;1.67;;;;;19.40;39.20;101843.81;5094274;27;45383;-68
2022/05/13 08:46:15;;;;;;;;;2.33;2.33;;;;;19.48;38.35;101841.16;5105420;27;45405;-69
2022/05/13 08:48:53;;;;;;;;;1.00;1.00;;;;;19.54;38.25;101840.31;5098909;27;45403;-68
2022/05/13 08:51:40;;;;;;;;;5.00;4.33;;;;;19.55;38.54;101832.19;5108708;27;45510;-74
2022/05/13 08:54:15;;;;;;;;;4.67;3.67;;;;;19.83;38.74;101841.41;5101872;27;45438;-68
2022/05/13 08:56:47;;;;;;;;;14.67;14.00;;;;;19.66;39.01;101792.47;5099108;27;45498;-70
2022/05/13 08:59:19;;;;;;;;;2.00;2.00;;;;;19.94;37.49;101841.47;5099510;27;45540;-68
2022/05/13 09:02:06;;;;;;;;;2.00;2.00;;;;;19.69;38.22;101802.44;5104685;27;45427;-69
2022/05/13 09:04:38;;;;;;;;;1.00;1.00;;;;;19.58;38.22;101826.75;5107375;27;45475;-69
2022/05/13 09:07:14;;;;;;;;;3.33;2.33;;;;;19.30;38.63;101807.63;5106166;27;45499;-69
2022/05/13 09:09:43;;;;;;;;;2.00;2.00;;;;;19.15;38.75;101804.78;5094448;27;45466;-70
2022/05/13 09:12:22;;;;;;;;;2.67;1.33;;;;;19.40;39.00;101832.97;5099273;27;45411;-72
2022/05/13 09:15:01;;;;;;;;;2.33;2.00;;;;;18.99;38.84;101741.47;5109902;27;46151;-67
2022/05/13 09:18:00;;;;;;;;;12.33;6.00;;;;;19.75;36.94;101839.50;5101573;27;45495;-68
2022/05/13 09:20:26;;;;;;;;;1.00;1.00;;;;;19.96;36.39;101827.91;5097007;27;45338;-69
2022/05/13 09:22:53;;;;;;;;;2.00;2.00;;;;;20.15;35.92;101831.63;5094577;27;45344;-69
2022/05/13 09:25:28;;;;;;;;;12.67;12.67;;;;;20.31;34.90;101840.72;5101958;27;45451;-69
2022/05/13 09:28:05;;;;;;;;;1.33;1.00;;;;;20.48;34.39;101840.78;5113893;27;45377;-70
2022/05/13 09:30:38;;;;;;;;;2.00;2.00;;;;;20.57;35.05;101832.66;5113974;27;47462;-69
2022/05/13 09:33:20;;;;;;;;;1.00;1.00;;;;;20.60;34.65;101830.84;5114933;27;45294;-72
2022/05/13 09:35:47;;;;;;;;;2.67;2.67;;;;;20.61;34.52;101816.38;5114416;27;45496;-68
2022/05/13 09:38:23;;;;;;;;;4.67;2.00;;;;;20.70;34.63;101837.22;5114555;27;45543;-73
2022/05/13 09:40:58;;;;;;;;;3.33;3.00;;;;;20.69;34.75;101804.66;5098621;27;47096;-67
2022/05/13 09:43:43;;;;;;;;;5.33;4.00;;;;;20.86;34.74;101829.13;5108338;27;45603;-71
2022/05/13 09:46:19;;;;;;;;;3.67;3.00;;;;;20.91;34.69;101827.31;5106228;27;45427;-70
2022/05/13 09:49:33;;;;;;;;;3.67;2.67;;;;;20.78;33.85;101808.28;5094338;27;45293;-69
2022/05/13 09:52:11;;;;;;;;;6.33;6.00;;;;;20.55;33.43;101800.06;5110961;27;46163;-70
2022/05/13 09:54:39;;;;;;;;;2.33;2.33;;;;;20.22;33.90;101758.38;5100254;27;45295;-72
2022/05/13 09:57:07;;;;;;;;;6.67;6.00;;;;;20.67;33.45;101826.34;5107182;27;45655;-70
2022/05/13 09:59:40;;;;;;;;;1.67;1.00;;;;;20.62;33.60;101823.63;5095909;27;45485;-68
2022/05/13 10:02:20;;;;;;;;;1.67;1.00;;;;;20.55;33.31;101824.50;5076020;27;47508;-68
2022/05/13 10:04:51;;;;;;;;;1.00;1.00;;;;;20.00;33.37;101751.09;5109399;27;45420;-70
2022/05/13 10:07:18;;;;;;;;;3.00;1.67;;;;;20.43;33.77;101813.63;5114937;27;45476;-72
2022/05/13 10:15:25;;;;;;;;;3.00;2.00;;;;;20.69;33.36;101815.50;5113960;27;45322;-66
2022/05/13 10:17:55;;;;;;;;;3.33;3.33;;;;;20.59;33.84;101773.81;5086004;27;45554;-68
2022/05/13 10:20:29;;;;;;;;;2.33;1.33;;;;;20.93;33.09;101811.91;5099138;27;45582;-67
2022/05/13 10:23:03;;;;;;;;;2.67;2.00;;;;;21.03;32.94;101813.72;5104717;27;45536;-67
2022/05/13 10:25:43;;;;;;;;;2.00;2.00;;;;;20.94;32.75;101792.00;5103940;27;45418;-68
2022/05/13 10:28:12;;;;;;;;;2.00;2.00;;;;;21.06;31.95;101802.84;5107096;27;45472;-66
2022/05/13 10:30:50;;;;;;;;;1.00;1.00;;;;;20.88;31.86;101773.88;5098070;27;45468;-68
2022/05/13 10:33:33;;;;;;;;;4.67;3.00;;;;;20.86;32.32;101769.38;5107638;27;46522;-68
2022/05/13 10:36:09;;;;;;;;;10.33;10.33;;;;;20.97;31.88;101805.59;5106784;27;45431;-66
2022/05/13 10:39:02;;;;;;;;;2.67;2.33;;;;;21.05;32.46;101808.28;5086257;27;45693;-67
2022/05/13 10:41:48;;;;;;;;;2.00;2.00;;;;;21.16;32.40;101801.94;5106900;27;45283;-67
2022/05/13 10:44:20;;;;;;;;;23.67;18.67;;;;;20.92;32.57;101736.75;5110246;27;46399;-67
2022/05/13 10:46:50;;;;;;;;;4.33;4.33;;;;;21.07;32.85;101752.13;5096882;27;45718;-68
2022/05/13 10:49:16;;;;;;;;;3.00;3.00;;;;;21.31;32.11;101797.41;5097960;27;45467;-68
2022/05/13 10:52:06;;;;;;;;;4.33;3.00;;;;;21.12;32.26;101783.84;5107034;27;45406;-67
2022/05/13 10:55:16;;;;;;;;;4.67;3.67;;;;;21.10;32.35;101799.25;5100324;27;46335;-69
2022/05/13 10:57:55;;;;;;;;;1.67;1.67;;;;;20.99;32.01;101793.81;5096158;27;45499;-66
2022/05/13 11:00:27;;;;;;;;;4.00;2.33;;;;;20.83;32.76;101751.25;5100158;27;45535;-67
2022/05/13 11:03:45;;;;;;;;;3.00;1.67;;;;;21.09;32.19;101781.13;5107740;27;45516;-67
2022/05/13 11:06:42;;;;;;;;;4.00;3.00;;;;;21.15;32.50;101781.13;5031630;28;46745;-68
2022/05/13 11:09:34;;;;;;;;;3.33;2.00;;;;;21.11;32.34;101782.03;5032181;28;45577;-68
2022/05/13 11:12:16;;;;;;;;;4.00;3.67;;;;;21.02;32.37;101771.19;5098681;27;45392;-67
2022/05/13 11:14:50;;;;;;;;;1.67;1.67;;;;;21.15;31.82;101786.56;5079967;27;46351;-67
2022/05/13 11:17:39;;;;;;;;;4.00;3.00;;;;;21.13;32.33;101776.59;5100701;27;46305;-66
2022/05/13 11:20:20;;;;;;;;;1.67;1.67;;;;;21.14;31.94;101782.03;5108725;27;45552;-70
2022/05/13 11:23:13;;;;;;;;;2.33;2.33;;;;;21.14;32.10;101781.13;5097685;27;45522;-66
2022/05/13 11:26:28;;;;;;;;;14.00;9.67;;;;;21.06;32.30;101772.97;5105679;27;45384;-68
2022/05/13 11:29:08;;;;;;;;;6.33;4.33;;;;;20.99;32.76;101763.91;5093755;27;46192;-66
2022/05/13 11:31:51;;;;;;;;;2.00;2.00;;;;;20.78;32.38;101732.22;5106221;27;45480;-66
2022/05/13 11:34:35;;;;;;;;;12.00;11.00;;;;;20.96;32.28;101763.03;5100127;27;45322;-70
2022/05/13 11:37:04;;;;;;;;;4.00;3.00;;;;;20.72;32.56;101718.69;5098927;27;45487;-66
2022/05/13 11:39:42;;;;;;;;;3.67;3.67;;;;;21.02;32.53;101767.53;5097817;27;45333;-67
2022/05/13 11:42:32;;;;;;;;;9.67;5.67;;;;;21.09;32.81;101764.81;5096804;27;45474;-67
2022/05/13 11:45:23;;;;;;;;;3.00;3.00;;;;;21.11;32.49;101757.56;5111222;27;45559;-67
2022/05/13 11:47:58;;;;;;;;;6.00;5.00;;;;;21.08;32.13;101760.28;5058653;27;45519;-72
2022/05/13 11:50:26;;;;;;;;;5.67;3.33;;;;;21.12;32.18;101756.66;5102000;27;46365;-71
2022/05/13 11:52:53;;;;;;;;;1.67;1.67;;;;;21.01;32.06;101739.47;5104701;27;45930;-69
2022/05/13 11:55:41;;;;;;;;;2.00;2.00;;;;;21.08;31.92;101749.41;5106401;27;45350;-69
2022/05/13 11:58:08;;;;;;;;;1.00;1.00;;;;;21.02;31.81;101730.44;5099771;27;45391;-67
2022/05/13 12:00:36;;;;;;;;;1.00;1.00;;;;;21.17;31.65;101764.81;5096021;27;47327;-66
2022/05/13 12:03:07;;;;;;;;;3.00;2.00;;;;;21.18;31.96;101763.91;5096044;27;45612;-64
2022/05/13 12:05:53;;;;;;;;;1.67;1.33;;;;;21.22;31.85;101751.19;5113717;27;45328;-68
2022/05/13 12:08:31;;;;;;;;;1.33;1.00;;;;;21.18;31.47;101750.31;5101069;27;45514;-67